sensor_id;sensor_type;location;lat;lon;timestamp;pressure;altitude;pressure_sealevel;temperature;humidity
15914;BME280;8055;51.930;8.840;2022-08-01T00:01:56;99435.25;;;18.72;100.00
15914;BME280;8055;51.930;8.840;2022-08-01T00:04:21;99427.00;;;18.72;100.00
15914;BME280;8055;51.930;8.840;2022-08-01T00:06:47;99428.47;;;18.75;100.00
15914;BME280;8055;51.930;8.840;2022-08-01T00:09:12;99425.72;;;18.75;100.00
15914;BME280;8055;51.930;8.840;2022-08-01T00:11:38;99432.50;;;18.72;100.00
15914;BME280;8055;51.930;8.840;2022-08-01T00:14:03;99441.22;;;18.69;100.00
15914;BME280;8055;51.930;8.840;2022-08-01T00:16:29;99434.53;;;18.65;100.00
15914;BME280;8055;51.930;8.840;2022-08-01T00:18:54;99429.25;;;18.63;100.00
15914;BME280;8055;51.930;8.840;2022-08-01T00:21:20;99434.75;;;18.63;100.00
15914;BME280;8055;51.930;8.840;2022-08-01T00:23:46;99435.94;;;18.67;100.00
15914;BME280;8055;51.930;8.840;2022-08-01T00:26:12;99447.66;;;18.63;100.00
15914;BME280;8055;51.930;8.840;2022-08-01T00:28:38;99446.00;;;18.62;100.00
15914;BME280;8055;51.930;8.840;2022-08-01T00:31:04;99446.00;;;18.62;100.00
15914;BME280;8055;51.930;8.840;2022-08-01T00:33:29;99446.59;;;18.64;100.00
15914;BME280;8055;51.930;8.840;2022-08-01T00:35:54;99447.06;;;18.61;100.00
15914;BME280;8055;51.930;8.840;2022-08-01T00:38:21;99442.03;;;18.58;100.00
15914;BME280;8055;51.930;8.840;2022-08-01T00:40:46;99447.78;;;18.56;100.00
15914;BME280;8055;51.930;8.840;2022-08-01T00:43:12;99440.84;;;18.54;100.00
15914;BME280;8055;51.930;8.840;2022-08-01T00:45:37;99437.88;;;18.55;100.00
15914;BME280;8055;51.930;8.840;2022-08-01T00:48:03;99441.44;;;18.56;100.00
15914;BME280;8055;51.930;8.840;2022-08-01T00:50:29;99442.75;;;18.53;100.00
15914;BME280;8055;51.930;8.840;2022-08-01T00:52:55;99440.69;;;18.48;100.00
15914;BME280;8055;51.930;8.840;2022-08-01T00:55:20;99444.06;;;18.50;100.00
15914;BME280;8055;51.930;8.840;2022-08-01T00:57:46;99440.47;;;18.50;100.00
15914;BME280;8055;51.930;8.840;2022-08-01T01:00:13;99440.56;;;18.43;100.00
15914;BME280;8055;51.930;8.840;2022-08-01T01:02:38;99442.97;;;18.40;100.00
15914;BME280;8055;51.930;8.840;2022-08-01T01:05:04;99439.22;;;18.34;100.00
15914;BME280;8055;51.930;8.840;2022-08-01T01:10:32;99442.56;;;18.36;100.00
15914;BME280;8055;51.930;8.840;2022-08-01T01:13:18;99440.78;;;18.30;100.00
15914;BME280;8055;51.930;8.840;2022-08-01T01:15:46;99441.63;;;18.31;100.00
15914;BME280;8055;51.930;8.840;2022-08-01T01:18:29;99442.19;;;18.33;100.00
15914;BME280;8055;51.930;8.840;2022-08-01T01:21:24;99441.63;;;18.31;100.00
15914;BME280;8055;51.930;8.840;2022-08-01T01:24:07;99436.81;;;18.26;100.00
15914;BME280;8055;51.930;8.840;2022-08-01T01:26:43;99440.16;;;18.28;100.00
15914;BME280;8055;51.930;8.840;2022-08-01T01:31:52;99433.47;;;18.24;100.00
15914;BME280;8055;51.930;8.840;2022-08-01T01:34:22;99439.44;;;18.21;100.00
15914;BME280;8055;51.930;8.840;2022-08-01T01:36:49;99435.59;;;18.22;100.00
15914;BME280;8055;51.930;8.840;2022-08-01T01:39:18;99434.53;;;18.23;100.00
15914;BME280;8055;51.930;8.840;2022-08-01T01:41:45;99446.75;;;18.27;100.00
15914;BME280;8055;51.930;8.840;2022-08-01T01:44:12;99436.81;;;18.26;100.00
15914;BME280;8055;51.930;8.840;2022-08-01T01:46:39;99435.97;;;18.25;100.00
15914;BME280;8055;51.930;8.840;2022-08-01T01:49:07;99436.91;;;18.19;100.00
15914;BME280;8055;51.930;8.840;2022-08-01T01:51:35;99445.41;;;18.18;100.00
15914;BME280;8055;51.930;8.840;2022-08-01T01:54:02;99439.50;;;18.14;100.00
15914;BME280;8055;51.930;8.840;2022-08-01T01:56:30;99443.47;;;18.18;100.00
15914;BME280;8055;51.930;8.840;2022-08-01T01:58:59;99449.81;;;18.19;100.00
15914;BME280;8055;51.930;8.840;2022-08-01T02:01:27;99443.69;;;18.17;100.00
15914;BME280;8055;51.930;8.840;2022-08-01T02:03:55;99444.53;;;18.17;100.00
15914;BME280;8055;51.930;8.840;2022-08-01T02:06:23;99450.03;;;18.17;100.00
15914;BME280;8055;51.930;8.840;2022-08-01T02:08:50;99449.19;;;18.17;100.00
15914;BME280;8055;51.930;8.840;2022-08-01T02:11:18;99448.97;;;18.18;100.00
15914;BME280;8055;51.930;8.840;2022-08-01T02:13:53;99447.06;;;18.19;100.00
15914;BME280;8055;51.930;8.840;2022-08-01T02:16:21;99458.28;;;18.17;100.00
15914;BME280;8055;51.930;8.840;2022-08-01T02:18:48;99456.72;;;18.10;100.00
15914;BME280;8055;51.930;8.840;2022-08-01T02:21:16;99459.44;;;18.10;100.00
15914;BME280;8055;51.930;8.840;2022-08-01T02:23:45;99456.47;;;18.11;100.00
15914;BME280;8055;51.930;8.840;2022-08-01T02:26:14;99459.44;;;18.10;100.00
15914;BME280;8055;51.930;8.840;2022-08-01T02:28:45;99466.63;;;18.11;100.00
15914;BME280;8055;51.930;8.840;2022-08-01T02:31:14;99466.03;;;18.09;100.00
15914;BME280;8055;51.930;8.840;2022-08-01T02:33:44;99467.09;;;18.08;100.00
15914;BME280;8055;51.930;8.840;2022-08-01T02:36:12;99474.13;;;18.03;100.00
15914;BME280;8055;51.930;8.840;2022-08-01T02:38:41;99459.53;;;18.03;100.00
15914;BME280;8055;51.930;8.840;2022-08-01T02:41:09;99455.59;;;17.99;100.00
15914;BME280;8055;51.930;8.840;2022-08-01T02:43:38;99459.38;;;17.98;100.00
15914;BME280;8055;51.930;8.840;2022-08-01T02:46:08;99464.31;;;17.96;100.00
15914;BME280;8055;51.930;8.840;2022-08-01T02:48:38;99461.75;;;17.94;100.00
15914;BME280;8055;51.930;8.840;2022-08-01T02:51:06;99461.75;;;17.94;100.00
15914;BME280;8055;51.930;8.840;2022-08-01T02:53:34;99461.56;;;17.96;100.00
15914;BME280;8055;51.930;8.840;2022-08-01T02:56:05;99468.94;;;17.95;100.00
15914;BME280;8055;51.930;8.840;2022-08-01T02:58:33;99469.78;;;17.96;100.00
15914;BME280;8055;51.930;8.840;2022-08-01T03:01:00;99467.25;;;17.94;100.00
15914;BME280;8055;51.930;8.840;2022-08-01T03:03:26;99465.81;;;17.92;100.00
15914;BME280;8055;51.930;8.840;2022-08-01T03:05:52;99462.22;;;17.91;100.00
15914;BME280;8055;51.930;8.840;2022-08-01T03:08:19;99470.72;;;17.90;100.00
15914;BME280;8055;51.930;8.840;2022-08-01T03:10:46;99469.84;;;17.89;100.00
15914;BME280;8055;51.930;8.840;2022-08-01T03:13:13;99469.03;;;17.89;100.00
15914;BME280;8055;51.930;8.840;2022-08-01T03:15:41;99460.66;;;17.84;100.00
15914;BME280;8055;51.930;8.840;2022-08-01T03:18:09;99470.81;;;17.83;100.00
15914;BME280;8055;51.930;8.840;2022-08-01T03:20:36;99469.56;;;17.79;100.00
15914;BME280;8055;51.930;8.840;2022-08-01T03:23:05;99477.59;;;17.80;100.00
15914;BME280;8055;51.930;8.840;2022-08-01T03:25:32;99475.06;;;17.79;100.00
15914;BME280;8055;51.930;8.840;2022-08-01T03:28:02;99470.19;;;17.81;100.00
15914;BME280;8055;51.930;8.840;2022-08-01T03:30:29;99480.56;;;17.79;100.00
15914;BME280;8055;51.930;8.840;2022-08-01T03:32:55;99491.31;;;17.80;100.00
15914;BME280;8055;51.930;8.840;2022-08-01T03:35:23;99475.69;;;17.81;100.00
15914;BME280;8055;51.930;8.840;2022-08-01T03:37:52;99480.94;;;17.83;100.00
15914;BME280;8055;51.930;8.840;2022-08-01T03:40:23;99481.31;;;17.86;100.00
15914;BME280;8055;51.930;8.840;2022-08-01T03:42:53;99489.53;;;17.86;100.00
15914;BME280;8055;51.930;8.840;2022-08-01T03:45:31;99491.25;;;17.87;100.00
15914;BME280;8055;51.930;8.840;2022-08-01T03:48:02;99481.78;;;17.83;100.00
15914;BME280;8055;51.930;8.840;2022-08-01T03:50:30;99481.53;;;17.85;100.00
15914;BME280;8055;51.930;8.840;2022-08-01T03:53:00;99481.78;;;17.83;100.00
15914;BME280;8055;51.930;8.840;2022-08-01T03:55:27;99488.13;;;17.84;100.00
15914;BME280;8055;51.930;8.840;2022-08-01T03:57:54;99494.91;;;17.81;100.00
15914;BME280;8055;51.930;8.840;2022-08-01T04:00:19;99492.78;;;17.83;100.00
15914;BME280;8055;51.930;8.840;2022-08-01T04:02:47;99497.03;;;17.79;100.00
15914;BME280;8055;51.930;8.840;2022-08-01T04:05:13;99490.94;;;17.77;100.00
15914;BME280;8055;51.930;8.840;2022-08-01T04:07:39;99498.16;;;17.71;100.00
15914;BME280;8055;51.930;8.840;2022-08-01T04:10:05;99499.63;;;17.74;100.00
15914;BME280;8055;51.930;8.840;2022-08-01T04:12:31;99501.75;;;17.72;100.00
15914;BME280;8055;51.930;8.840;2022-08-01T04:14:57;99504.50;;;17.72;100.00
15914;BME280;8055;51.930;8.840;2022-08-01T04:17:24;99510.59;;;17.74;100.00
15914;BME280;8055;51.930;8.840;2022-08-01T04:19:50;99501.75;;;17.72;100.00
15914;BME280;8055;51.930;8.840;2022-08-01T04:22:15;99514.84;;;17.70;100.00
15914;BME280;8055;51.930;8.840;2022-08-01T04:24:42;99514.03;;;17.69;100.00
15914;BME280;8055;51.930;8.840;2022-08-01T04:27:11;99509.81;;;17.67;100.00
15914;BME280;8055;51.930;8.840;2022-08-01T04:29:39;99507.44;;;17.70;100.00
15914;BME280;8055;51.930;8.840;2022-08-01T04:32:07;99509.97;;;17.72;100.00
15914;BME280;8055;51.930;8.840;2022-08-01T04:34:37;99512.09;;;17.70;100.00
15914;BME280;8055;51.930;8.840;2022-08-01T04:37:03;99516.31;;;17.72;100.00
15914;BME280;8055;51.930;8.840;2022-08-01T04:39:31;99508.91;;;17.73;100.00
15914;BME280;8055;51.930;8.840;2022-08-01T04:41:59;99514.78;;;17.76;100.00
15914;BME280;8055;51.930;8.840;2022-08-01T04:44:29;99518.56;;;17.82;100.00
15914;BME280;8055;51.930;8.840;2022-08-01T04:47:00;99521.31;;;17.82;100.00
15914;BME280;8055;51.930;8.840;2022-08-01T04:49:31;99523.84;;;17.84;100.00
15914;BME280;8055;51.930;8.840;2022-08-01T04:51:56;99527.78;;;17.88;100.00
15914;BME280;8055;51.930;8.840;2022-08-01T04:54:32;99527.56;;;17.89;100.00
15914;BME280;8055;51.930;8.840;2022-08-01T04:56:59;99527.34;;;17.91;100.00
15914;BME280;8055;51.930;8.840;2022-08-01T04:59:29;99535.78;;;17.89;100.00
15914;BME280;8055;51.930;8.840;2022-08-01T05:02:18;99536.19;;;17.93;100.00
15914;BME280;8055;51.930;8.840;2022-08-01T05:04:45;99531.75;;;17.92;100.00
15914;BME280;8055;51.930;8.840;2022-08-01T05:07:12;99539.53;;;17.95;100.00
15914;BME280;8055;51.930;8.840;2022-08-01T05:09:39;99533.84;;;17.96;100.00
15914;BME280;8055;51.930;8.840;2022-08-01T05:12:10;99536.78;;;17.95;100.00
15914;BME280;8055;51.930;8.840;2022-08-01T05:14:36;99534.22;;;18.00;100.00
15914;BME280;8055;51.930;8.840;2022-08-01T05:17:03;99540.06;;;18.03;100.00
15914;BME280;8055;51.930;8.840;2022-08-01T05:19:30;99538.53;;;18.08;100.00
15914;BME280;8055;51.930;8.840;2022-08-01T05:21:57;99539.38;;;18.08;100.00
15914;BME280;8055;51.930;8.840;2022-08-01T05:24:23;99538.78;;;18.06;100.00
15914;BME280;8055;51.930;8.840;2022-08-01T05:26:49;99537.69;;;18.07;100.00
15914;BME280;8055;51.930;8.840;2022-08-01T05:29:15;99540.44;;;18.07;100.00
15914;BME280;8055;51.930;8.840;2022-08-01T05:31:40;99546.19;;;18.06;100.00
15914;BME280;8055;51.930;8.840;2022-08-01T05:34:06;99549.53;;;18.08;100.00
15914;BME280;8055;51.930;8.840;2022-08-01T05:36:31;99543.81;;;18.09;100.00
15914;BME280;8055;51.930;8.840;2022-08-01T05:38:57;99548.47;;;18.09;100.00
15914;BME280;8055;51.930;8.840;2022-08-01T05:41:23;99556.88;;;18.14;100.00
15914;BME280;8055;51.930;8.840;2022-08-01T05:43:48;99554.34;;;18.12;100.00
15914;BME280;8055;51.930;8.840;2022-08-01T05:46:13;99556.88;;;18.14;100.00
15914;BME280;8055;51.930;8.840;2022-08-01T05:48:39;99556.28;;;18.12;100.00
15914;BME280;8055;51.930;8.840;2022-08-01T05:51:04;99554.13;;;18.14;100.00
15914;BME280;8055;51.930;8.840;2022-08-01T05:53:30;99550.78;;;18.12;100.00
15914;BME280;8055;51.930;8.840;2022-08-01T05:55:56;99564.53;;;18.12;100.00
15914;BME280;8055;51.930;8.840;2022-08-01T05:58:22;99563.66;;;18.11;100.00
15914;BME280;8055;51.930;8.840;2022-08-01T06:00:47;99561.78;;;18.12;100.00
15914;BME280;8055;51.930;8.840;2022-08-01T06:03:12;99564.06;;;18.15;100.00
15914;BME280;8055;51.930;8.840;2022-08-01T06:05:39;99565.03;;;18.20;100.00
15914;BME280;8055;51.930;8.840;2022-08-01T06:08:05;99567.56;;;18.22;100.00
15914;BME280;8055;51.930;8.840;2022-08-01T06:10:30;99572.34;;;18.26;100.00
15914;BME280;8055;51.930;8.840;2022-08-01T06:12:56;99576.78;;;18.27;100.00
15914;BME280;8055;51.930;8.840;2022-08-01T06:15:21;99582.06;;;18.29;100.00
15914;BME280;8055;51.930;8.840;2022-08-01T06:17:47;99586.25;;;18.32;100.00
15914;BME280;8055;51.930;8.840;2022-08-01T06:20:12;99577.16;;;18.31;100.00
15914;BME280;8055;51.930;8.840;2022-08-01T06:22:37;99580.13;;;18.30;100.00
15914;BME280;8055;51.930;8.840;2022-08-01T06:25:03;99586.63;;;18.35;100.00
15914;BME280;8055;51.930;8.840;2022-08-01T06:27:29;99577.53;;;18.35;100.00
15914;BME280;8055;51.930;8.840;2022-08-01T06:29:54;99584.50;;;18.37;100.00
15914;BME280;8055;51.930;8.840;2022-08-01T06:32:20;99589.06;;;18.43;100.00
15914;BME280;8055;51.930;8.840;2022-08-01T06:34:48;99589.16;;;18.37;100.00
15914;BME280;8055;51.930;8.840;2022-08-01T06:37:14;99587.84;;;18.39;100.00
15914;BME280;8055;51.930;8.840;2022-08-01T06:39:39;99586.16;;;18.38;100.00
15914;BME280;8055;51.930;8.840;2022-08-01T06:42:05;99593.13;;;18.41;100.00
15914;BME280;8055;51.930;8.840;2022-08-01T06:44:30;99588.63;;;18.46;100.00
15914;BME280;8055;51.930;8.840;2022-08-01T06:46:56;99595.16;;;18.45;100.00
15914;BME280;8055;51.930;8.840;2022-08-01T06:49:24;99584.16;;;18.45;100.00
15914;BME280;8055;51.930;8.840;2022-08-01T06:51:49;99595.09;;;18.52;100.00
15914;BME280;8055;51.930;8.840;2022-08-01T06:54:14;99588.06;;;18.56;100.00
15914;BME280;8055;51.930;8.840;2022-08-01T06:56:41;99590.09;;;18.61;100.00
15914;BME280;8055;51.930;8.840;2022-08-01T06:59:07;99598.03;;;18.69;100.00
15914;BME280;8055;51.930;8.840;2022-08-01T07:01:32;99587.88;;;18.69;100.00
15914;BME280;8055;51.930;8.840;2022-08-01T07:03:57;99592.28;;;18.70;100.00
15914;BME280;8055;51.930;8.840;2022-08-01T07:06:24;99593.84;;;18.66;100.00
15914;BME280;8055;51.930;8.840;2022-08-01T07:08:50;99593.00;;;18.66;100.00
15914;BME280;8055;51.930;8.840;2022-08-01T07:11:16;99595.75;;;18.66;100.00
15914;BME280;8055;51.930;8.840;2022-08-01T07:13:42;99600.31;;;18.72;100.00
15914;BME280;8055;51.930;8.840;2022-08-01T07:16:07;99592.06;;;18.72;100.00
15914;BME280;8055;51.930;8.840;2022-08-01T07:18:32;99583.13;;;18.77;100.00
15914;BME280;8055;51.930;8.840;2022-08-01T07:20:58;99589.88;;;18.81;100.00
15914;BME280;8055;51.930;8.840;2022-08-01T07:23:23;99589.00;;;18.80;100.00
15914;BME280;8055;51.930;8.840;2022-08-01T07:25:49;99591.91;;;18.85;100.00
15914;BME280;8055;51.930;8.840;2022-08-01T07:28:16;99595.13;;;18.82;100.00
15914;BME280;8055;51.930;8.840;2022-08-01T07:30:41;99590.81;;;18.86;100.00
15914;BME280;8055;51.930;8.840;2022-08-01T07:33:09;99594.72;;;18.97;100.00
15914;BME280;8055;51.930;8.840;2022-08-01T07:35:35;99601.88;;;18.98;100.00
15914;BME280;8055;51.930;8.840;2022-08-01T07:38:04;99602.88;;;19.04;100.00
15914;BME280;8055;51.930;8.840;2022-08-01T07:40:29;99597.34;;;19.04;100.00
15914;BME280;8055;51.930;8.840;2022-08-01T07:42:55;99605.38;;;19.05;100.00
15914;BME280;8055;51.930;8.840;2022-08-01T07:45:20;99603.94;;;19.03;100.00
15914;BME280;8055;51.930;8.840;2022-08-01T07:47:46;99609.44;;;19.03;100.00
15914;BME280;8055;51.930;8.840;2022-08-01T07:50:12;99625.19;;;18.84;100.00
15914;BME280;8055;51.930;8.840;2022-08-01T07:52:38;99634.72;;;18.63;100.00
15914;BME280;8055;51.930;8.840;2022-08-01T07:55:04;99626.41;;;18.51;100.00
15914;BME280;8055;51.930;8.840;2022-08-01T07:57:29;99634.28;;;18.47;100.00
15914;BME280;8055;51.930;8.840;2022-08-01T07:59:55;99630.53;;;18.42;100.00
15914;BME280;8055;51.930;8.840;2022-08-01T08:02:21;99632.09;;;18.38;100.00
15914;BME280;8055;51.930;8.840;2022-08-01T08:04:46;99638.19;;;18.40;100.00
15914;BME280;8055;51.930;8.840;2022-08-01T08:07:11;99639.25;;;18.39;100.00
15914;BME280;8055;51.930;8.840;2022-08-01T08:09:37;99646.44;;;18.40;100.00
15914;BME280;8055;51.930;8.840;2022-08-01T08:12:02;99644.28;;;18.42;100.00
15914;BME280;8055;51.930;8.840;2022-08-01T08:14:28;99640.94;;;18.40;100.00
15914;BME280;8055;51.930;8.840;2022-08-01T08:16:54;99644.06;;;18.43;100.00
15914;BME280;8055;51.930;8.840;2022-08-01T08:19:20;99643.75;;;18.52;100.00
15914;BME280;8055;51.930;8.840;2022-08-01T08:21:45;99644.13;;;18.73;100.00
15914;BME280;8055;51.930;8.840;2022-08-01T08:24:11;99646.56;;;18.82;100.00
15914;BME280;8055;51.930;8.840;2022-08-01T08:26:47;99647.16;;;19.02;100.00
15914;BME280;8055;51.930;8.840;2022-08-01T08:29:13;99636.06;;;19.21;100.00
15914;BME280;8055;51.930;8.840;2022-08-01T08:31:38;99637.44;;;19.41;100.00
15914;BME280;8055;51.930;8.840;2022-08-01T08:34:04;99640.47;;;19.63;100.00
15914;BME280;8055;51.930;8.840;2022-08-01T08:36:29;99647.59;;;19.71;100.00
15914;BME280;8055;51.930;8.840;2022-08-01T08:38:55;99638.09;;;19.67;100.00
15914;BME280;8055;51.930;8.840;2022-08-01T08:41:21;99647.19;;;19.68;100.00
15914;BME280;8055;51.930;8.840;2022-08-01T08:43:47;99650.56;;;19.70;100.00
15914;BME280;8055;51.930;8.840;2022-08-01T08:46:13;99649.94;;;19.68;100.00
15914;BME280;8055;51.930;8.840;2022-08-01T08:48:41;99654.34;;;19.57;100.00
15914;BME280;8055;51.930;8.840;2022-08-01T08:51:07;99654.69;;;19.49;100.00
15914;BME280;8055;51.930;8.840;2022-08-01T08:53:35;99647.97;;;19.45;100.00
15914;BME280;8055;51.930;8.840;2022-08-01T08:56:01;99652.78;;;19.49;100.00
15914;BME280;8055;51.930;8.840;2022-08-01T08:58:27;99666.47;;;19.56;100.00
15914;BME280;8055;51.930;8.840;2022-08-01T09:00:56;99666.56;;;19.61;100.00
15914;BME280;8055;51.930;8.840;2022-08-01T09:03:22;99671.03;;;19.62;100.00
15914;BME280;8055;51.930;8.840;2022-08-01T09:05:47;99663.81;;;19.61;100.00
15914;BME280;8055;51.930;8.840;2022-08-01T09:08:12;99673.09;;;19.67;100.00
15914;BME280;8055;51.930;8.840;2022-08-01T09:10:38;99665.22;;;19.52;100.00
15914;BME280;8055;51.930;8.840;2022-08-01T09:13:14;99671.84;;;19.62;100.00
15914;BME280;8055;51.930;8.840;2022-08-01T09:15:46;99670.16;;;19.61;100.00
15914;BME280;8055;51.930;8.840;2022-08-01T09:18:32;99669.88;;;19.81;100.00
15914;BME280;8055;51.930;8.840;2022-08-01T09:21:18;99673.13;;;19.90;100.00
15914;BME280;8055;51.930;8.840;2022-08-01T09:23:49;99672.72;;;19.86;100.00
15914;BME280;8055;51.930;8.840;2022-08-01T09:26:17;99676.22;;;19.94;100.00
15914;BME280;8055;51.930;8.840;2022-08-01T09:28:45;99686.16;;;19.95;100.00
15914;BME280;8055;51.930;8.840;2022-08-01T09:31:16;99682.34;;;20.19;100.00
15914;BME280;8055;51.930;8.840;2022-08-01T09:33:55;99679.88;;;20.46;100.00
15914;BME280;8055;51.930;8.840;2022-08-01T09:36:23;99680.84;;;20.75;100.00
15914;BME280;8055;51.930;8.840;2022-08-01T09:38:50;99688.03;;;20.65;100.00
15914;BME280;8055;51.930;8.840;2022-08-01T09:41:16;99693.53;;;20.76;100.00
15914;BME280;8055;51.930;8.840;2022-08-01T09:43:48;99693.19;;;20.73;100.00
15914;BME280;8055;51.930;8.840;2022-08-01T09:46:14;99696.13;;;20.54;100.00
15914;BME280;8055;51.930;8.840;2022-08-01T09:49:00;99699.81;;;20.48;100.00
15914;BME280;8055;51.930;8.840;2022-08-01T09:51:37;99698.63;;;20.32;100.00
15914;BME280;8055;51.930;8.840;2022-08-01T09:54:05;99697.69;;;20.15;100.00
15914;BME280;8055;51.930;8.840;2022-08-01T09:56:39;99700.56;;;20.20;100.00
15914;BME280;8055;51.930;8.840;2022-08-01T09:59:06;99686.28;;;20.35;100.00
15914;BME280;8055;51.930;8.840;2022-08-01T10:01:48;99697.44;;;20.52;100.00
15914;BME280;8055;51.930;8.840;2022-08-01T10:04:19;99696.81;;;20.50;100.00
15914;BME280;8055;51.930;8.840;2022-08-01T10:06:47;99697.91;;;20.61;100.00
15914;BME280;8055;51.930;8.840;2022-08-01T10:09:32;99707.75;;;20.56;100.00
15914;BME280;8055;51.930;8.840;2022-08-01T10:11:59;99705.59;;;20.35;100.00
15914;BME280;8055;51.930;8.840;2022-08-01T10:14:26;99708.34;;;20.35;100.00
15914;BME280;8055;51.930;8.840;2022-08-01T10:16:52;99708.59;;;20.22;100.00
15914;BME280;8055;51.930;8.840;2022-08-01T10:19:21;99712.41;;;20.44;100.00
15914;BME280;8055;51.930;8.840;2022-08-01T10:21:48;99706.03;;;20.67;100.00
15914;BME280;8055;51.930;8.840;2022-08-01T10:24:16;99695.78;;;20.91;100.00
15914;BME280;8055;51.930;8.840;2022-08-01T10:26:43;99703.00;;;21.21;100.00
15914;BME280;8055;51.930;8.840;2022-08-01T10:29:09;99700.63;;;21.13;100.00
15914;BME280;8055;51.930;8.840;2022-08-01T10:31:37;99697.75;;;21.08;100.00
15914;BME280;8055;51.930;8.840;2022-08-01T10:34:04;99697.53;;;21.09;100.00
15914;BME280;8055;51.930;8.840;2022-08-01T10:36:29;99703.00;;;21.21;100.00
15914;BME280;8055;51.930;8.840;2022-08-01T10:38:56;99701.66;;;21.23;100.00
15914;BME280;8055;51.930;8.840;2022-08-01T10:41:22;99705.59;;;21.27;100.00
15914;BME280;8055;51.930;8.840;2022-08-01T10:43:48;99707.78;;;21.25;100.00
15914;BME280;8055;51.930;8.840;2022-08-01T10:46:14;99709.13;;;21.23;100.00
15914;BME280;8055;51.930;8.840;2022-08-01T10:48:59;99701.38;;;21.37;100.00
15914;BME280;8055;51.930;8.840;2022-08-01T10:51:27;99702.00;;;21.27;100.00
15914;BME280;8055;51.930;8.840;2022-08-01T10:53:53;99702.25;;;21.25;100.00
15914;BME280;8055;51.930;8.840;2022-08-01T10:56:20;99699.25;;;21.27;100.00
15914;BME280;8055;51.930;8.840;2022-08-01T10:58:47;99703.09;;;21.26;100.00
15914;BME280;8055;51.930;8.840;2022-08-01T11:09:19;99704.53;;;21.57;100.00
15914;BME280;8055;51.930;8.840;2022-08-01T11:14:31;99700.50;;;21.65;100.00
15914;BME280;8055;51.930;8.840;2022-08-01T11:17:29;99701.66;;;21.52;100.00
15914;BME280;8055;51.930;8.840;2022-08-01T11:20:10;99701.00;;;21.62;100.00
15914;BME280;8055;51.930;8.840;2022-08-01T11:30:47;99707.06;;;21.18;100.00
15914;BME280;8055;51.930;8.840;2022-08-01T11:33:14;99708.00;;;20.95;100.00
15914;BME280;8055;51.930;8.840;2022-08-01T11:38:37;99711.09;;;20.47;100.00
15914;BME280;8055;51.930;8.840;2022-08-01T11:44:03;99719.38;;;20.11;100.00
15914;BME280;8055;51.930;8.840;2022-08-01T11:46:59;99718.03;;;20.02;100.00
15914;BME280;8055;51.930;8.840;2022-08-01T11:49:33;99727.75;;;20.05;100.00
15914;BME280;8055;51.930;8.840;2022-08-01T11:54:31;99711.94;;;20.00;100.00
15914;BME280;8055;51.930;8.840;2022-08-01T11:56:58;99725.38;;;19.97;100.00
15914;BME280;8055;51.930;8.840;2022-08-01T11:59:24;99720.81;;;19.91;100.00
15914;BME280;8055;51.930;8.840;2022-08-01T12:01:50;99718.53;;;19.87;100.00
15914;BME280;8055;51.930;8.840;2022-08-01T12:04:15;99717.44;;;19.88;100.00
15914;BME280;8055;51.930;8.840;2022-08-01T12:06:41;99726.56;;;19.89;100.00
15914;BME280;8055;51.930;8.840;2022-08-01T12:11:42;99727.75;;;19.81;100.00
15914;BME280;8055;51.930;8.840;2022-08-01T12:14:07;99726.41;;;19.72;100.00
15914;BME280;8055;51.930;8.840;2022-08-01T12:16:33;99725.09;;;19.75;100.00
15914;BME280;8055;51.930;8.840;2022-08-01T12:18:58;99727.34;;;19.66;100.00
15914;BME280;8055;51.930;8.840;2022-08-01T12:21:24;99728.88;;;19.62;100.00
15914;BME280;8055;51.930;8.840;2022-08-01T12:24:02;99739.28;;;19.60;100.00
15914;BME280;8055;51.930;8.840;2022-08-01T12:26:41;99738.56;;;19.53;100.00
15914;BME280;8055;51.930;8.840;2022-08-01T12:29:07;99743.69;;;19.49;100.00
15914;BME280;8055;51.930;8.840;2022-08-01T12:31:33;99744.91;;;19.53;100.00
15914;BME280;8055;51.930;8.840;2022-08-01T12:34:26;99750.50;;;19.47;100.00
15914;BME280;8055;51.930;8.840;2022-08-01T12:36:56;99758.25;;;19.38;100.00
15914;BME280;8055;51.930;8.840;2022-08-01T12:39:29;99761.09;;;19.31;100.00
15914;BME280;8055;51.930;8.840;2022-08-01T12:41:54;99768.47;;;19.19;100.00
15914;BME280;8055;51.930;8.840;2022-08-01T12:44:20;99769.63;;;19.11;100.00
15914;BME280;8055;51.930;8.840;2022-08-01T12:46:45;99768.31;;;19.14;100.00
15914;BME280;8055;51.930;8.840;2022-08-01T12:49:11;99769.16;;;19.14;100.00
15914;BME280;8055;51.930;8.840;2022-08-01T12:51:36;99771.53;;;19.11;100.00
15914;BME280;8055;51.930;8.840;2022-08-01T12:54:02;99774.06;;;19.12;100.00
15914;BME280;8055;51.930;8.840;2022-08-01T12:56:32;99766.81;;;19.18;100.00
15914;BME280;8055;51.930;8.840;2022-08-01T12:58:58;99772.78;;;19.15;100.00
15914;BME280;8055;51.930;8.840;2022-08-01T13:01:28;99767.16;;;19.22;100.00
15914;BME280;8055;51.930;8.840;2022-08-01T13:04:01;99759.56;;;19.35;100.00
15914;BME280;8055;51.930;8.840;2022-08-01T13:06:29;99757.69;;;19.48;100.00
15914;BME280;8055;51.930;8.840;2022-08-01T13:09:07;99757.13;;;19.57;100.00
15914;BME280;8055;51.930;8.840;2022-08-01T13:11:34;99770.81;;;19.64;100.00
15914;BME280;8055;51.930;8.840;2022-08-01T13:13:59;99768.84;;;19.71;100.00
15914;BME280;8055;51.930;8.840;2022-08-01T13:16:26;99767.38;;;19.80;100.00
15914;BME280;8055;51.930;8.840;2022-08-01T13:18:53;99775.69;;;19.92;100.00
15914;BME280;8055;51.930;8.840;2022-08-01T13:21:23;99773.66;;;19.87;100.00
15914;BME280;8055;51.930;8.840;2022-08-01T13:24:08;99771.13;;;19.86;100.00
15914;BME280;8055;51.930;8.840;2022-08-01T13:26:42;99770.53;;;19.84;100.00
15914;BME280;8055;51.930;8.840;2022-08-01T13:29:09;99776.41;;;19.87;100.00
15914;BME280;8055;51.930;8.840;2022-08-01T13:31:36;99782.16;;;19.74;100.00
15914;BME280;8055;51.930;8.840;2022-08-01T13:34:02;99779.00;;;19.71;100.00
15914;BME280;8055;51.930;8.840;2022-08-01T13:36:28;99782.97;;;19.75;100.00
15914;BME280;8055;51.930;8.840;2022-08-01T13:38:55;99781.38;;;19.67;100.00
15914;BME280;8055;51.930;8.840;2022-08-01T13:41:40;99777.59;;;19.50;100.00